Shoshone, California Weather observations

Data are for observation ending at time listed.
 Day   Time    Ave.   Ave.  Ave.  Vector   Max.   Stn.    Total    Solar   Ave.  
  of    of     Air    Rel.  Wind   Wind    Wind   Baro.  Precip.   Rad.    Soil  
Year   Day     Temp.  Hum.  Speed  Dir.    Gust   Pres.                    Temp. 
2014   (PST)    F      %     mph   deg.    mph     mb.     in.     W/m2     F   
------------------------------------------------------------------------------
 330    0:00   38.4    26    0.5    38      2.3    981     0.00       0    99999.0
 330    1:00   35.8    28    1.0    40      4.0    981     0.00       0    99999.0
 330    2:00   35.5    27    1.3    71      3.7    981     0.00       0    99999.0
 330    3:00   32.2    34    0.4   315      2.6    981     0.00       0    99999.0
 330    4:00   31.5    34    0.8   346      3.0    981     0.00       0    99999.0
 330    5:00   30.4    36    0.6     0      3.0    981     0.00       0    99999.0
 330    6:00   30.6    33    0.9    37      2.9    981     0.00       0    99999.0
 330    7:00   29.0    34    0.8   345      3.4    982     0.00       8    99999.0
 330    8:00   34.8    29    0.3    23      1.8    982     0.00     148    99999.0
 330    9:00   43.9    21    1.2   298      4.0    982     0.00     262    99999.0
 330   10:00   52.2    16    1.2   278      4.2    983     0.00     470    99999.0
 330   11:00   59.0    14    2.5   303      5.8    982     0.00     570    99999.0
 330   12:00   64.2    12    2.3   279      6.1    981     0.00     608    99999.0
 330   13:00   68.2    11    1.8   269      4.5    979     0.00     582    99999.0
 330   14:00   72.1    11    1.4   279      5.0    978     0.00     493    99999.0
 330   15:00  99999.0   99999  99999.0   99999    99999.0    99999    99999.00   99999    99999.0
 330   16:00   72.6    11    1.4   172      5.0    978     0.00     176    99999.0
 330   17:00   65.5    13    0.7   126      3.7    977     0.00      19    99999.0
 330   18:00   60.7    13    1.1   104      3.1    977     0.00       0    99999.0
 330   19:00   53.9    16    1.9    61      5.3    978     0.00       1    99999.0
 330   20:00   49.3    20    0.3    47      3.2    978     0.00       0    99999.0
 330   21:00   46.1    22    1.1   313      3.4    978     0.00       0    99999.0
 330   22:00   42.5    26    0.8   329      3.0    979     0.00       0    99999.0
 330   23:00   40.1    29    0.3   357      2.3    979     0.00       0    99999.0

Return to Shoshone, California graphs page.


Western Regional Climate Center,wrcc@dri.edu